sensor_id;sensor_type;location;lat;lon;timestamp;P1;durP1;ratioP1;P2;durP2;ratioP2
10550;SDS011;5324;50.684;3.862;2022-08-14T00:02:01;2.60;;;2.40;;
10550;SDS011;5324;50.684;3.862;2022-08-14T00:04:28;2.85;;;2.35;;
10550;SDS011;5324;50.684;3.862;2022-08-14T00:06:54;2.25;;;2.15;;
10550;SDS011;5324;50.684;3.862;2022-08-14T00:09:20;2.35;;;2.25;;
10550;SDS011;5324;50.684;3.862;2022-08-14T00:11:47;2.30;;;2.20;;
10550;SDS011;5324;50.684;3.862;2022-08-14T00:14:13;2.38;;;2.20;;
10550;SDS011;5324;50.684;3.862;2022-08-14T00:16:39;2.40;;;2.28;;
10550;SDS011;5324;50.684;3.862;2022-08-14T00:19:05;3.83;;;1.90;;
10550;SDS011;5324;50.684;3.862;2022-08-14T00:21:31;2.05;;;1.95;;
10550;SDS011;5324;50.684;3.862;2022-08-14T00:23:57;2.85;;;2.40;;
10550;SDS011;5324;50.684;3.862;2022-08-14T00:26:23;3.33;;;2.30;;
10550;SDS011;5324;50.684;3.862;2022-08-14T00:28:50;4.13;;;2.55;;
10550;SDS011;5324;50.684;3.862;2022-08-14T00:31:16;2.28;;;2.17;;
10550;SDS011;5324;50.684;3.862;2022-08-14T00:33:42;2.53;;;2.00;;
10550;SDS011;5324;50.684;3.862;2022-08-14T00:36:08;2.15;;;2.00;;
10550;SDS011;5324;50.684;3.862;2022-08-14T00:38:34;2.67;;;2.40;;
10550;SDS011;5324;50.684;3.862;2022-08-14T00:41:02;2.25;;;2.05;;
10550;SDS011;5324;50.684;3.862;2022-08-14T00:43:28;2.40;;;2.20;;
10550;SDS011;5324;50.684;3.862;2022-08-14T00:45:54;2.67;;;2.47;;
10550;SDS011;5324;50.684;3.862;2022-08-14T00:48:20;2.33;;;2.10;;
10550;SDS011;5324;50.684;3.862;2022-08-14T00:50:46;3.38;;;2.30;;
10550;SDS011;5324;50.684;3.862;2022-08-14T00:53:12;3.20;;;2.90;;
10550;SDS011;5324;50.684;3.862;2022-08-14T00:55:40;3.58;;;2.78;;
10550;SDS011;5324;50.684;3.862;2022-08-14T00:58:07;2.53;;;2.33;;
10550;SDS011;5324;50.684;3.862;2022-08-14T01:00:52;3.47;;;2.75;;
10550;SDS011;5324;50.684;3.862;2022-08-14T01:03:18;6.13;;;2.38;;
10550;SDS011;5324;50.684;3.862;2022-08-14T01:05:45;3.25;;;2.80;;
10550;SDS011;5324;50.684;3.862;2022-08-14T01:08:16;2.85;;;2.63;;
10550;SDS011;5324;50.684;3.862;2022-08-14T01:10:43;2.30;;;2.13;;
10550;SDS011;5324;50.684;3.862;2022-08-14T01:13:18;2.05;;;1.95;;
10550;SDS011;5324;50.684;3.862;2022-08-14T01:15:45;2.20;;;2.10;;
10550;SDS011;5324;50.684;3.862;2022-08-14T01:18:12;2.35;;;2.25;;
10550;SDS011;5324;50.684;3.862;2022-08-14T01:20:58;2.70;;;2.50;;
10550;SDS011;5324;50.684;3.862;2022-08-14T01:23:27;2.58;;;2.40;;
10550;SDS011;5324;50.684;3.862;2022-08-14T01:25:55;2.75;;;2.55;;
10550;SDS011;5324;50.684;3.862;2022-08-14T01:28:22;2.83;;;2.63;;
10550;SDS011;5324;50.684;3.862;2022-08-14T01:30:50;3.13;;;2.40;;
10550;SDS011;5324;50.684;3.862;2022-08-14T01:33:20;2.83;;;2.38;;
10550;SDS011;5324;50.684;3.862;2022-08-14T01:35:46;5.72;;;2.60;;
10550;SDS011;5324;50.684;3.862;2022-08-14T01:38:12;2.67;;;2.47;;
10550;SDS011;5324;50.684;3.862;2022-08-14T01:40:39;2.40;;;2.30;;
10550;SDS011;5324;50.684;3.862;2022-08-14T01:43:12;2.47;;;2.28;;
10550;SDS011;5324;50.684;3.862;2022-08-14T01:45:38;2.60;;;2.40;;
10550;SDS011;5324;50.684;3.862;2022-08-14T01:48:04;2.60;;;2.40;;
10550;SDS011;5324;50.684;3.862;2022-08-14T01:50:30;2.20;;;2.10;;
10550;SDS011;5324;50.684;3.862;2022-08-14T01:52:57;2.20;;;2.10;;
10550;SDS011;5324;50.684;3.862;2022-08-14T01:55:24;2.50;;;2.33;;
10550;SDS011;5324;50.684;3.862;2022-08-14T01:57:55;2.67;;;2.40;;
10550;SDS011;5324;50.684;3.862;2022-08-14T02:00:22;2.85;;;2.60;;
10550;SDS011;5324;50.684;3.862;2022-08-14T02:02:48;2.33;;;2.15;;
10550;SDS011;5324;50.684;3.862;2022-08-14T02:05:14;2.80;;;2.50;;
10550;SDS011;5324;50.684;3.862;2022-08-14T02:07:41;4.28;;;2.60;;
10550;SDS011;5324;50.684;3.862;2022-08-14T02:10:10;2.40;;;2.20;;
10550;SDS011;5324;50.684;3.862;2022-08-14T02:12:36;2.47;;;2.28;;
10550;SDS011;5324;50.684;3.862;2022-08-14T02:15:03;2.33;;;2.17;;
10550;SDS011;5324;50.684;3.862;2022-08-14T02:17:31;4.28;;;2.55;;
10550;SDS011;5324;50.684;3.862;2022-08-14T02:19:57;4.63;;;2.58;;
10550;SDS011;5324;50.684;3.862;2022-08-14T02:22:23;3.15;;;2.92;;
10550;SDS011;5324;50.684;3.862;2022-08-14T02:24:50;2.40;;;2.30;;
10550;SDS011;5324;50.684;3.862;2022-08-14T02:27:16;2.78;;;2.58;;
10550;SDS011;5324;50.684;3.862;2022-08-14T02:29:42;2.40;;;2.20;;
10550;SDS011;5324;50.684;3.862;2022-08-14T02:32:08;2.65;;;2.45;;
10550;SDS011;5324;50.684;3.862;2022-08-14T02:34:36;2.70;;;2.50;;
10550;SDS011;5324;50.684;3.862;2022-08-14T02:37:06;2.53;;;2.33;;
10550;SDS011;5324;50.684;3.862;2022-08-14T02:39:35;3.20;;;2.53;;
10550;SDS011;5324;50.684;3.862;2022-08-14T02:42:01;2.67;;;2.47;;
10550;SDS011;5324;50.684;3.862;2022-08-14T02:44:27;2.65;;;2.42;;
10550;SDS011;5324;50.684;3.862;2022-08-14T02:46:54;2.40;;;2.30;;
10550;SDS011;5324;50.684;3.862;2022-08-14T02:49:21;2.80;;;2.60;;
10550;SDS011;5324;50.684;3.862;2022-08-14T02:51:50;2.55;;;2.35;;
10550;SDS011;5324;50.684;3.862;2022-08-14T02:54:16;3.13;;;2.35;;
10550;SDS011;5324;50.684;3.862;2022-08-14T02:56:42;5.00;;;2.72;;
10550;SDS011;5324;50.684;3.862;2022-08-14T02:59:08;4.20;;;2.70;;
10550;SDS011;5324;50.684;3.862;2022-08-14T03:01:38;3.00;;;2.80;;
10550;SDS011;5324;50.684;3.862;2022-08-14T03:04:04;2.70;;;2.50;;
10550;SDS011;5324;50.684;3.862;2022-08-14T03:06:31;2.67;;;2.47;;
10550;SDS011;5324;50.684;3.862;2022-08-14T03:08:57;3.08;;;2.72;;
10550;SDS011;5324;50.684;3.862;2022-08-14T03:11:25;3.97;;;2.70;;
10550;SDS011;5324;50.684;3.862;2022-08-14T03:13:51;2.90;;;2.70;;
10550;SDS011;5324;50.684;3.862;2022-08-14T03:16:19;3.35;;;3.08;;
10550;SDS011;5324;50.684;3.862;2022-08-14T03:18:46;5.57;;;2.85;;
10550;SDS011;5324;50.684;3.862;2022-08-14T03:21:13;2.53;;;2.33;;
10550;SDS011;5324;50.684;3.862;2022-08-14T03:23:40;5.68;;;2.80;;
10550;SDS011;5324;50.684;3.862;2022-08-14T03:26:08;4.55;;;2.80;;
10550;SDS011;5324;50.684;3.862;2022-08-14T03:28:34;3.28;;;3.08;;
10550;SDS011;5324;50.684;3.862;2022-08-14T03:31:04;3.00;;;2.80;;
10550;SDS011;5324;50.684;3.862;2022-08-14T03:33:30;2.80;;;2.60;;
10550;SDS011;5324;50.684;3.862;2022-08-14T03:35:56;5.88;;;3.05;;
10550;SDS011;5324;50.684;3.862;2022-08-14T03:38:23;2.58;;;2.45;;
10550;SDS011;5324;50.684;3.862;2022-08-14T03:40:49;2.78;;;2.58;;
10550;SDS011;5324;50.684;3.862;2022-08-14T03:43:15;2.80;;;2.60;;
10550;SDS011;5324;50.684;3.862;2022-08-14T03:45:41;2.65;;;2.45;;
10550;SDS011;5324;50.684;3.862;2022-08-14T03:48:16;2.83;;;2.58;;
10550;SDS011;5324;50.684;3.862;2022-08-14T03:50:46;2.80;;;2.20;;
10550;SDS011;5324;50.684;3.862;2022-08-14T03:53:13;2.65;;;2.45;;
10550;SDS011;5324;50.684;3.862;2022-08-14T03:55:42;2.90;;;2.70;;
10550;SDS011;5324;50.684;3.862;2022-08-14T03:58:08;2.70;;;2.50;;
10550;SDS011;5324;50.684;3.862;2022-08-14T04:00:36;2.88;;;2.67;;
10550;SDS011;5324;50.684;3.862;2022-08-14T04:03:03;3.10;;;2.90;;
10550;SDS011;5324;50.684;3.862;2022-08-14T04:05:30;2.88;;;2.67;;
10550;SDS011;5324;50.684;3.862;2022-08-14T04:07:56;2.92;;;2.72;;
10550;SDS011;5324;50.684;3.862;2022-08-14T04:10:22;3.20;;;2.70;;
10550;SDS011;5324;50.684;3.862;2022-08-14T04:12:48;2.72;;;2.60;;
10550;SDS011;5324;50.684;3.862;2022-08-14T04:15:15;2.50;;;2.20;;
10550;SDS011;5324;50.684;3.862;2022-08-14T04:17:45;2.28;;;2.17;;
10550;SDS011;5324;50.684;3.862;2022-08-14T04:20:11;2.97;;;2.67;;
10550;SDS011;5324;50.684;3.862;2022-08-14T04:22:37;2.90;;;2.70;;
10550;SDS011;5324;50.684;3.862;2022-08-14T04:25:08;3.45;;;3.10;;
10550;SDS011;5324;50.684;3.862;2022-08-14T04:27:34;5.03;;;2.53;;
10550;SDS011;5324;50.684;3.862;2022-08-14T04:30:00;2.80;;;2.60;;
10550;SDS011;5324;50.684;3.862;2022-08-14T04:32:27;2.63;;;2.42;;
10550;SDS011;5324;50.684;3.862;2022-08-14T04:34:53;2.60;;;2.40;;
10550;SDS011;5324;50.684;3.862;2022-08-14T04:37:20;2.80;;;2.60;;
10550;SDS011;5324;50.684;3.862;2022-08-14T04:40:05;2.80;;;2.60;;
10550;SDS011;5324;50.684;3.862;2022-08-14T04:42:50;2.80;;;2.60;;
10550;SDS011;5324;50.684;3.862;2022-08-14T04:45:35;5.35;;;2.58;;
10550;SDS011;5324;50.684;3.862;2022-08-14T04:48:14;2.85;;;2.47;;
10550;SDS011;5324;50.684;3.862;2022-08-14T04:50:47;4.18;;;3.10;;
10550;SDS011;5324;50.684;3.862;2022-08-14T04:53:18;2.85;;;2.65;;
10550;SDS011;5324;50.684;3.862;2022-08-14T04:55:45;2.55;;;2.35;;
10550;SDS011;5324;50.684;3.862;2022-08-14T04:58:12;2.80;;;2.60;;
10550;SDS011;5324;50.684;3.862;2022-08-14T05:00:39;3.25;;;2.88;;
10550;SDS011;5324;50.684;3.862;2022-08-14T05:03:05;2.70;;;2.50;;
10550;SDS011;5324;50.684;3.862;2022-08-14T05:05:32;2.70;;;2.50;;
10550;SDS011;5324;50.684;3.862;2022-08-14T05:08:08;2.95;;;2.60;;
10550;SDS011;5324;50.684;3.862;2022-08-14T05:10:36;2.88;;;2.67;;
10550;SDS011;5324;50.684;3.862;2022-08-14T05:13:02;2.53;;;2.33;;
10550;SDS011;5324;50.684;3.862;2022-08-14T05:15:29;3.08;;;2.55;;
10550;SDS011;5324;50.684;3.862;2022-08-14T05:17:55;3.90;;;2.88;;
10550;SDS011;5324;50.684;3.862;2022-08-14T05:20:21;2.65;;;2.45;;
10550;SDS011;5324;50.684;3.862;2022-08-14T05:22:48;3.28;;;3.05;;
10550;SDS011;5324;50.684;3.862;2022-08-14T05:25:14;2.63;;;2.42;;
10550;SDS011;5324;50.684;3.862;2022-08-14T05:27:40;3.08;;;2.70;;
10550;SDS011;5324;50.684;3.862;2022-08-14T05:30:06;3.22;;;3.00;;
10550;SDS011;5324;50.684;3.862;2022-08-14T05:32:32;2.75;;;2.55;;
10550;SDS011;5324;50.684;3.862;2022-08-14T05:34:59;3.28;;;2.50;;
10550;SDS011;5324;50.684;3.862;2022-08-14T05:37:25;3.45;;;2.47;;
10550;SDS011;5324;50.684;3.862;2022-08-14T05:39:52;2.92;;;2.72;;
10550;SDS011;5324;50.684;3.862;2022-08-14T05:42:18;4.78;;;2.50;;
10550;SDS011;5324;50.684;3.862;2022-08-14T05:44:46;2.55;;;2.35;;
10550;SDS011;5324;50.684;3.862;2022-08-14T05:47:12;3.30;;;2.20;;
10550;SDS011;5324;50.684;3.862;2022-08-14T05:49:38;2.20;;;2.10;;
10550;SDS011;5324;50.684;3.862;2022-08-14T05:52:04;2.90;;;2.70;;
10550;SDS011;5324;50.684;3.862;2022-08-14T05:54:31;2.75;;;2.47;;
10550;SDS011;5324;50.684;3.862;2022-08-14T05:56:57;2.70;;;2.50;;
10550;SDS011;5324;50.684;3.862;2022-08-14T05:59:23;3.22;;;2.67;;
10550;SDS011;5324;50.684;3.862;2022-08-14T06:01:49;2.83;;;2.63;;
10550;SDS011;5324;50.684;3.862;2022-08-14T06:04:15;2.53;;;2.33;;
10550;SDS011;5324;50.684;3.862;2022-08-14T06:06:41;4.85;;;2.65;;
10550;SDS011;5324;50.684;3.862;2022-08-14T06:09:07;3.05;;;2.45;;
10550;SDS011;5324;50.684;3.862;2022-08-14T06:11:34;2.58;;;2.38;;
10550;SDS011;5324;50.684;3.862;2022-08-14T06:14:00;3.30;;;2.70;;
10550;SDS011;5324;50.684;3.862;2022-08-14T06:16:26;4.20;;;3.20;;
10550;SDS011;5324;50.684;3.862;2022-08-14T06:18:52;3.35;;;3.05;;
10550;SDS011;5324;50.684;3.862;2022-08-14T06:21:19;3.17;;;2.67;;
10550;SDS011;5324;50.684;3.862;2022-08-14T06:23:45;4.15;;;2.70;;
10550;SDS011;5324;50.684;3.862;2022-08-14T06:26:11;2.70;;;2.50;;
10550;SDS011;5324;50.684;3.862;2022-08-14T06:28:37;2.58;;;2.38;;
10550;SDS011;5324;50.684;3.862;2022-08-14T06:31:03;2.65;;;2.50;;
10550;SDS011;5324;50.684;3.862;2022-08-14T06:33:30;2.97;;;2.58;;
10550;SDS011;5324;50.684;3.862;2022-08-14T06:35:56;4.32;;;3.28;;
10550;SDS011;5324;50.684;3.862;2022-08-14T06:38:22;3.22;;;2.95;;
10550;SDS011;5324;50.684;3.862;2022-08-14T06:40:49;3.15;;;2.90;;
10550;SDS011;5324;50.684;3.862;2022-08-14T06:43:15;3.35;;;2.88;;
10550;SDS011;5324;50.684;3.862;2022-08-14T06:45:43;3.00;;;2.67;;
10550;SDS011;5324;50.684;3.862;2022-08-14T06:50:39;3.10;;;2.80;;
10550;SDS011;5324;50.684;3.862;2022-08-14T06:53:05;2.85;;;2.65;;
10550;SDS011;5324;50.684;3.862;2022-08-14T06:55:31;3.92;;;3.38;;
10550;SDS011;5324;50.684;3.862;2022-08-14T06:57:57;3.83;;;3.17;;
10550;SDS011;5324;50.684;3.862;2022-08-14T07:00:26;3.30;;;3.00;;
10550;SDS011;5324;50.684;3.862;2022-08-14T07:02:53;3.55;;;3.25;;
10550;SDS011;5324;50.684;3.862;2022-08-14T07:05:39;4.75;;;3.40;;
10550;SDS011;5324;50.684;3.862;2022-08-14T07:08:18;3.90;;;2.90;;
10550;SDS011;5324;50.684;3.862;2022-08-14T07:10:45;4.25;;;3.05;;
10550;SDS011;5324;50.684;3.862;2022-08-14T07:13:12;3.22;;;2.85;;
10550;SDS011;5324;50.684;3.862;2022-08-14T07:15:38;3.08;;;2.70;;
10550;SDS011;5324;50.684;3.862;2022-08-14T07:18:05;3.78;;;2.90;;
10550;SDS011;5324;50.684;3.862;2022-08-14T07:20:32;5.05;;;3.00;;
10550;SDS011;5324;50.684;3.862;2022-08-14T07:23:00;3.38;;;3.03;;
10550;SDS011;5324;50.684;3.862;2022-08-14T07:25:26;4.30;;;2.85;;
10550;SDS011;5324;50.684;3.862;2022-08-14T07:27:53;2.60;;;2.40;;
10550;SDS011;5324;50.684;3.862;2022-08-14T07:30:19;2.95;;;2.65;;
10550;SDS011;5324;50.684;3.862;2022-08-14T07:32:45;3.40;;;2.40;;
10550;SDS011;5324;50.684;3.862;2022-08-14T07:35:11;3.72;;;2.97;;
10550;SDS011;5324;50.684;3.862;2022-08-14T07:37:37;3.13;;;2.72;;
10550;SDS011;5324;50.684;3.862;2022-08-14T07:40:04;3.10;;;2.63;;
10550;SDS011;5324;50.684;3.862;2022-08-14T07:42:30;3.25;;;2.95;;
10550;SDS011;5324;50.684;3.862;2022-08-14T07:44:56;3.75;;;3.33;;
10550;SDS011;5324;50.684;3.862;2022-08-14T07:47:23;3.60;;;3.30;;
10550;SDS011;5324;50.684;3.862;2022-08-14T07:50:03;3.50;;;3.10;;
10550;SDS011;5324;50.684;3.862;2022-08-14T07:52:29;4.35;;;3.30;;
10550;SDS011;5324;50.684;3.862;2022-08-14T07:54:55;3.60;;;3.08;;
10550;SDS011;5324;50.684;3.862;2022-08-14T07:57:22;2.83;;;2.60;;
10550;SDS011;5324;50.684;3.862;2022-08-14T07:59:48;3.60;;;2.58;;
10550;SDS011;5324;50.684;3.862;2022-08-14T08:02:14;3.20;;;2.90;;
10550;SDS011;5324;50.684;3.862;2022-08-14T08:04:42;3.15;;;2.85;;
10550;SDS011;5324;50.684;3.862;2022-08-14T08:07:09;4.47;;;2.70;;
10550;SDS011;5324;50.684;3.862;2022-08-14T08:09:35;3.00;;;2.80;;
10550;SDS011;5324;50.684;3.862;2022-08-14T08:12:01;5.22;;;2.97;;
10550;SDS011;5324;50.684;3.862;2022-08-14T08:14:30;3.20;;;2.85;;
10550;SDS011;5324;50.684;3.862;2022-08-14T08:16:57;2.95;;;2.70;;
10550;SDS011;5324;50.684;3.862;2022-08-14T08:19:24;2.90;;;2.70;;
10550;SDS011;5324;50.684;3.862;2022-08-14T08:21:50;3.03;;;2.83;;
10550;SDS011;5324;50.684;3.862;2022-08-14T08:24:18;3.00;;;2.70;;
10550;SDS011;5324;50.684;3.862;2022-08-14T08:26:44;3.30;;;3.03;;
10550;SDS011;5324;50.684;3.862;2022-08-14T08:29:17;3.35;;;2.45;;
10550;SDS011;5324;50.684;3.862;2022-08-14T08:31:46;3.05;;;2.75;;
10550;SDS011;5324;50.684;3.862;2022-08-14T08:34:14;3.40;;;3.10;;
10550;SDS011;5324;50.684;3.862;2022-08-14T08:36:40;2.92;;;2.63;;
10550;SDS011;5324;50.684;3.862;2022-08-14T08:39:07;3.67;;;3.00;;
10550;SDS011;5324;50.684;3.862;2022-08-14T08:41:39;3.53;;;2.42;;
10550;SDS011;5324;50.684;3.862;2022-08-14T08:44:05;3.20;;;2.70;;
10550;SDS011;5324;50.684;3.862;2022-08-14T08:46:31;2.80;;;2.53;;
10550;SDS011;5324;50.684;3.862;2022-08-14T08:48:57;3.05;;;2.75;;
10550;SDS011;5324;50.684;3.862;2022-08-14T08:51:25;4.22;;;2.63;;
10550;SDS011;5324;50.684;3.862;2022-08-14T08:53:58;3.58;;;2.30;;
10550;SDS011;5324;50.684;3.862;2022-08-14T08:56:44;2.20;;;2.10;;
10550;SDS011;5324;50.684;3.862;2022-08-14T08:59:20;2.90;;;2.60;;
10550;SDS011;5324;50.684;3.862;2022-08-14T09:01:48;2.83;;;2.63;;
10550;SDS011;5324;50.684;3.862;2022-08-14T09:04:15;2.67;;;2.50;;
10550;SDS011;5324;50.684;3.862;2022-08-14T09:06:47;2.97;;;2.70;;
10550;SDS011;5324;50.684;3.862;2022-08-14T09:11:46;2.40;;;2.30;;
10550;SDS011;5324;50.684;3.862;2022-08-14T09:14:12;3.75;;;2.30;;
10550;SDS011;5324;50.684;3.862;2022-08-14T09:16:38;3.25;;;2.70;;
10550;SDS011;5324;50.684;3.862;2022-08-14T09:19:04;2.83;;;2.63;;
10550;SDS011;5324;50.684;3.862;2022-08-14T09:21:31;2.70;;;2.50;;
10550;SDS011;5324;50.684;3.862;2022-08-14T09:23:58;3.40;;;2.65;;
10550;SDS011;5324;50.684;3.862;2022-08-14T09:26:24;2.85;;;2.50;;
10550;SDS011;5324;50.684;3.862;2022-08-14T09:28:51;2.80;;;2.60;;
10550;SDS011;5324;50.684;3.862;2022-08-14T09:31:17;2.88;;;2.65;;
10550;SDS011;5324;50.684;3.862;2022-08-14T09:39:09;2.67;;;2.47;;
10550;SDS011;5324;50.684;3.862;2022-08-14T09:47:07;2.88;;;2.35;;
10550;SDS011;5324;50.684;3.862;2022-08-14T09:49:35;2.50;;;2.30;;
10550;SDS011;5324;50.684;3.862;2022-08-14T09:52:05;3.20;;;2.60;;
10550;SDS011;5324;50.684;3.862;2022-08-14T09:54:35;2.70;;;2.50;;
10550;SDS011;5324;50.684;3.862;2022-08-14T09:57:02;2.45;;;2.03;;
10550;SDS011;5324;50.684;3.862;2022-08-14T09:59:38;2.40;;;2.30;;
10550;SDS011;5324;50.684;3.862;2022-08-14T10:02:15;2.40;;;2.30;;
10550;SDS011;5324;50.684;3.862;2022-08-14T10:04:41;2.50;;;2.38;;
10550;SDS011;5324;50.684;3.862;2022-08-14T10:07:09;2.30;;;2.20;;
10550;SDS011;5324;50.684;3.862;2022-08-14T10:09:45;2.30;;;2.20;;
10550;SDS011;5324;50.684;3.862;2022-08-14T10:12:12;2.75;;;2.55;;
10550;SDS011;5324;50.684;3.862;2022-08-14T10:14:38;2.30;;;2.20;;
10550;SDS011;5324;50.684;3.862;2022-08-14T10:17:05;2.67;;;2.47;;
10550;SDS011;5324;50.684;3.862;2022-08-14T10:19:31;3.80;;;2.50;;
10550;SDS011;5324;50.684;3.862;2022-08-14T10:24:29;2.50;;;2.40;;
10550;SDS011;5324;50.684;3.862;2022-08-14T10:26:56;2.50;;;2.30;;
10550;SDS011;5324;50.684;3.862;2022-08-14T10:31:57;2.53;;;2.33;;
10550;SDS011;5324;50.684;3.862;2022-08-14T10:34:29;2.78;;;2.58;;
10550;SDS011;5324;50.684;3.862;2022-08-14T10:37:01;2.28;;;2.17;;
10550;SDS011;5324;50.684;3.862;2022-08-14T10:39:28;3.05;;;2.70;;
10550;SDS011;5324;50.684;3.862;2022-08-14T10:42:01;2.40;;;2.20;;
10550;SDS011;5324;50.684;3.862;2022-08-14T10:44:36;2.30;;;2.10;;
10550;SDS011;5324;50.684;3.862;2022-08-14T10:47:04;2.28;;;1.85;;
10550;SDS011;5324;50.684;3.862;2022-08-14T10:49:33;2.03;;;1.92;;
10550;SDS011;5324;50.684;3.862;2022-08-14T10:52:01;2.50;;;2.30;;
10550;SDS011;5324;50.684;3.862;2022-08-14T10:54:32;2.03;;;1.92;;
10550;SDS011;5324;50.684;3.862;2022-08-14T10:59:45;2.40;;;2.20;;
10550;SDS011;5324;50.684;3.862;2022-08-14T11:02:25;2.13;;;2.03;;
10550;SDS011;5324;50.684;3.862;2022-08-14T11:05:08;2.33;;;2.13;;
10550;SDS011;5324;50.684;3.862;2022-08-14T11:07:53;2.47;;;2.33;;
10550;SDS011;5324;50.684;3.862;2022-08-14T11:10:21;2.40;;;2.20;;
10550;SDS011;5324;50.684;3.862;2022-08-14T11:12:49;2.15;;;2.05;;
10550;SDS011;5324;50.684;3.862;2022-08-14T11:15:19;2.20;;;2.10;;
10550;SDS011;5324;50.684;3.862;2022-08-14T11:17:46;2.35;;;2.22;;
10550;SDS011;5324;50.684;3.862;2022-08-14T11:20:14;1.85;;;1.75;;
10550;SDS011;5324;50.684;3.862;2022-08-14T11:22:40;2.22;;;2.13;;
10550;SDS011;5324;50.684;3.862;2022-08-14T11:25:08;1.95;;;1.80;;
10550;SDS011;5324;50.684;3.862;2022-08-14T11:27:34;1.95;;;1.85;;
10550;SDS011;5324;50.684;3.862;2022-08-14T11:30:01;1.90;;;1.80;;
10550;SDS011;5324;50.684;3.862;2022-08-14T11:32:29;2.30;;;2.10;;
10550;SDS011;5324;50.684;3.862;2022-08-14T11:34:55;2.47;;;1.80;;
10550;SDS011;5324;50.684;3.862;2022-08-14T11:37:22;1.95;;;1.85;;
10550;SDS011;5324;50.684;3.862;2022-08-14T11:39:48;3.90;;;2.17;;
10550;SDS011;5324;50.684;3.862;2022-08-14T11:42:25;1.92;;;1.83;;
10550;SDS011;5324;50.684;3.862;2022-08-14T11:44:52;2.22;;;2.03;;
10550;SDS011;5324;50.684;3.862;2022-08-14T11:47:18;2.38;;;2.17;;
10550;SDS011;5324;50.684;3.862;2022-08-14T11:52:48;2.45;;;2.35;;
10550;SDS011;5324;50.684;3.862;2022-08-14T11:55:16;2.50;;;2.40;;
10550;SDS011;5324;50.684;3.862;2022-08-14T11:57:42;2.28;;;2.17;;
10550;SDS011;5324;50.684;3.862;2022-08-14T12:00:14;2.60;;;2.40;;
10550;SDS011;5324;50.684;3.862;2022-08-14T12:02:54;2.40;;;2.20;;
10550;SDS011;5324;50.684;3.862;2022-08-14T12:05:27;3.05;;;2.35;;
10550;SDS011;5324;50.684;3.862;2022-08-14T12:07:54;2.58;;;2.38;;
10550;SDS011;5324;50.684;3.862;2022-08-14T12:10:22;3.30;;;2.17;;
10550;SDS011;5324;50.684;3.862;2022-08-14T12:12:48;2.40;;;2.30;;
10550;SDS011;5324;50.684;3.862;2022-08-14T12:15:26;2.10;;;2.00;;
10550;SDS011;5324;50.684;3.862;2022-08-14T12:17:52;2.30;;;2.20;;
10550;SDS011;5324;50.684;3.862;2022-08-14T12:20:27;2.45;;;2.33;;
10550;SDS011;5324;50.684;3.862;2022-08-14T12:22:55;2.42;;;2.22;;
10550;SDS011;5324;50.684;3.862;2022-08-14T12:25:21;1.92;;;1.83;;
10550;SDS011;5324;50.684;3.862;2022-08-14T12:27:49;2.03;;;1.92;;
10550;SDS011;5324;50.684;3.862;2022-08-14T12:30:32;2.00;;;1.90;;
10550;SDS011;5324;50.684;3.862;2022-08-14T12:32:59;2.17;;;2.00;;
10550;SDS011;5324;50.684;3.862;2022-08-14T12:35:41;2.20;;;2.10;;
10550;SDS011;5324;50.684;3.862;2022-08-14T12:38:11;2.35;;;2.15;;
10550;SDS011;5324;50.684;3.862;2022-08-14T12:40:51;2.00;;;1.90;;
10550;SDS011;5324;50.684;3.862;2022-08-14T12:43:18;2.17;;;2.08;;
10550;SDS011;5324;50.684;3.862;2022-08-14T12:45:49;3.42;;;2.05;;
10550;SDS011;5324;50.684;3.862;2022-08-14T12:48:19;2.10;;;1.70;;
10550;SDS011;5324;50.684;3.862;2022-08-14T12:50:45;1.90;;;1.80;;
10550;SDS011;5324;50.684;3.862;2022-08-14T12:53:12;2.40;;;2.20;;
10550;SDS011;5324;50.684;3.862;2022-08-14T12:55:39;2.38;;;2.17;;
10550;SDS011;5324;50.684;3.862;2022-08-14T12:58:06;1.90;;;1.80;;
10550;SDS011;5324;50.684;3.862;2022-08-14T13:00:33;1.98;;;1.88;;
10550;SDS011;5324;50.684;3.862;2022-08-14T13:03:00;2.80;;;2.00;;
10550;SDS011;5324;50.684;3.862;2022-08-14T13:05:29;2.33;;;1.90;;
10550;SDS011;5324;50.684;3.862;2022-08-14T13:07:56;1.90;;;1.80;;
10550;SDS011;5324;50.684;3.862;2022-08-14T13:10:22;1.90;;;1.80;;
10550;SDS011;5324;50.684;3.862;2022-08-14T13:12:49;2.10;;;2.00;;
10550;SDS011;5324;50.684;3.862;2022-08-14T13:15:16;2.10;;;2.00;;
10550;SDS011;5324;50.684;3.862;2022-08-14T13:17:44;1.88;;;1.77;;
10550;SDS011;5324;50.684;3.862;2022-08-14T13:20:11;2.15;;;2.00;;
10550;SDS011;5324;50.684;3.862;2022-08-14T13:22:39;1.90;;;1.80;;
10550;SDS011;5324;50.684;3.862;2022-08-14T13:25:08;1.83;;;1.73;;
10550;SDS011;5324;50.684;3.862;2022-08-14T13:27:35;2.67;;;2.10;;
10550;SDS011;5324;50.684;3.862;2022-08-14T13:30:03;1.80;;;1.70;;
10550;SDS011;5324;50.684;3.862;2022-08-14T13:32:29;1.90;;;1.80;;
10550;SDS011;5324;50.684;3.862;2022-08-14T13:34:56;1.80;;;1.70;;
10550;SDS011;5324;50.684;3.862;2022-08-14T13:37:23;1.92;;;1.83;;
10550;SDS011;5324;50.684;3.862;2022-08-14T13:39:50;2.47;;;2.28;;
10550;SDS011;5324;50.684;3.862;2022-08-14T13:42:17;2.50;;;2.30;;
10550;SDS011;5324;50.684;3.862;2022-08-14T13:44:46;2.50;;;2.30;;
10550;SDS011;5324;50.684;3.862;2022-08-14T13:47:14;2.05;;;1.95;;
10550;SDS011;5324;50.684;3.862;2022-08-14T13:49:43;2.00;;;1.90;;
10550;SDS011;5324;50.684;3.862;2022-08-14T13:52:10;1.90;;;1.80;;
10550;SDS011;5324;50.684;3.862;2022-08-14T13:54:36;1.70;;;1.60;;
10550;SDS011;5324;50.684;3.862;2022-08-14T13:57:04;1.77;;;1.67;;
10550;SDS011;5324;50.684;3.862;2022-08-14T13:59:31;1.73;;;1.63;;
10550;SDS011;5324;50.684;3.862;2022-08-14T14:02:03;1.80;;;1.70;;
10550;SDS011;5324;50.684;3.862;2022-08-14T14:04:29;2.20;;;2.10;;
10550;SDS011;5324;50.684;3.862;2022-08-14T14:06:55;1.90;;;1.80;;
10550;SDS011;5324;50.684;3.862;2022-08-14T14:09:28;2.10;;;1.92;;
10550;SDS011;5324;50.684;3.862;2022-08-14T14:11:58;2.25;;;1.88;;
10550;SDS011;5324;50.684;3.862;2022-08-14T14:14:25;1.95;;;1.85;;
10550;SDS011;5324;50.684;3.862;2022-08-14T14:16:51;2.00;;;1.90;;
10550;SDS011;5324;50.684;3.862;2022-08-14T14:19:19;2.38;;;2.28;;
10550;SDS011;5324;50.684;3.862;2022-08-14T14:21:49;2.33;;;2.22;;
10550;SDS011;5324;50.684;3.862;2022-08-14T14:24:16;2.00;;;1.90;;
10550;SDS011;5324;50.684;3.862;2022-08-14T14:26:46;2.00;;;1.90;;
10550;SDS011;5324;50.684;3.862;2022-08-14T14:29:13;2.00;;;1.90;;
10550;SDS011;5324;50.684;3.862;2022-08-14T14:31:39;2.42;;;1.75;;
10550;SDS011;5324;50.684;3.862;2022-08-14T14:34:06;1.60;;;1.50;;
10550;SDS011;5324;50.684;3.862;2022-08-14T14:36:35;2.35;;;2.15;;
10550;SDS011;5324;50.684;3.862;2022-08-14T14:39:03;2.10;;;1.90;;
10550;SDS011;5324;50.684;3.862;2022-08-14T14:41:31;2.03;;;1.92;;
10550;SDS011;5324;50.684;3.862;2022-08-14T14:43:58;2.42;;;2.22;;
10550;SDS011;5324;50.684;3.862;2022-08-14T14:46:25;2.00;;;1.90;;
10550;SDS011;5324;50.684;3.862;2022-08-14T14:48:56;2.10;;;2.00;;
10550;SDS011;5324;50.684;3.862;2022-08-14T14:51:23;2.03;;;1.92;;
10550;SDS011;5324;50.684;3.862;2022-08-14T14:53:49;2.08;;;1.98;;
10550;SDS011;5324;50.684;3.862;2022-08-14T14:56:16;2.20;;;2.10;;
10550;SDS011;5324;50.684;3.862;2022-08-14T14:58:42;2.10;;;2.00;;
10550;SDS011;5324;50.684;3.862;2022-08-14T15:01:08;2.00;;;1.90;;
10550;SDS011;5324;50.684;3.862;2022-08-14T15:03:35;2.08;;;1.98;;
10550;SDS011;5324;50.684;3.862;2022-08-14T15:06:02;2.13;;;1.92;;
10550;SDS011;5324;50.684;3.862;2022-08-14T15:08:29;2.17;;;2.08;;
10550;SDS011;5324;50.684;3.862;2022-08-14T15:10:55;3.55;;;2.00;;
10550;SDS011;5324;50.684;3.862;2022-08-14T15:13:22;2.10;;;2.00;;
10550;SDS011;5324;50.684;3.862;2022-08-14T15:15:48;1.80;;;1.70;;
10550;SDS011;5324;50.684;3.862;2022-08-14T15:18:14;1.80;;;1.70;;
10550;SDS011;5324;50.684;3.862;2022-08-14T15:20:40;1.90;;;1.80;;
10550;SDS011;5324;50.684;3.862;2022-08-14T15:23:06;1.90;;;1.80;;
10550;SDS011;5324;50.684;3.862;2022-08-14T15:25:32;2.03;;;1.92;;
10550;SDS011;5324;50.684;3.862;2022-08-14T15:27:58;2.22;;;2.13;;
10550;SDS011;5324;50.684;3.862;2022-08-14T15:30:24;1.98;;;1.88;;
10550;SDS011;5324;50.684;3.862;2022-08-14T15:32:52;2.88;;;2.05;;